sensor_id;sensor_type;location;lat;lon;timestamp;temperature;humidity
16881;DHT22;8557;52.068;5.198;2023-02-11T00:02:00;7.20;99.90
16881;DHT22;8557;52.068;5.198;2023-02-11T00:04:26;7.20;99.90
16881;DHT22;8557;52.068;5.198;2023-02-11T00:06:53;7.20;99.90
16881;DHT22;8557;52.068;5.198;2023-02-11T00:09:20;7.20;99.90
16881;DHT22;8557;52.068;5.198;2023-02-11T00:11:47;7.20;99.90
16881;DHT22;8557;52.068;5.198;2023-02-11T00:14:14;7.20;99.90
16881;DHT22;8557;52.068;5.198;2023-02-11T00:16:41;7.20;99.90
16881;DHT22;8557;52.068;5.198;2023-02-11T00:19:09;7.20;99.90
16881;DHT22;8557;52.068;5.198;2023-02-11T00:21:36;7.20;99.90
16881;DHT22;8557;52.068;5.198;2023-02-11T00:24:03;7.20;99.90
16881;DHT22;8557;52.068;5.198;2023-02-11T00:26:32;7.20;99.90
16881;DHT22;8557;52.068;5.198;2023-02-11T00:29:00;7.20;99.90
16881;DHT22;8557;52.068;5.198;2023-02-11T00:31:28;7.10;99.90
16881;DHT22;8557;52.068;5.198;2023-02-11T00:33:54;7.10;99.90
16881;DHT22;8557;52.068;5.198;2023-02-11T00:36:25;7.10;99.90
16881;DHT22;8557;52.068;5.198;2023-02-11T00:38:53;7.10;99.90
16881;DHT22;8557;52.068;5.198;2023-02-11T00:41:20;7.00;99.90
16881;DHT22;8557;52.068;5.198;2023-02-11T00:43:48;7.00;99.90
16881;DHT22;8557;52.068;5.198;2023-02-11T00:46:15;7.00;99.90
16881;DHT22;8557;52.068;5.198;2023-02-11T00:48:42;7.00;99.90
16881;DHT22;8557;52.068;5.198;2023-02-11T00:51:10;7.00;99.90
16881;DHT22;8557;52.068;5.198;2023-02-11T00:53:38;7.10;99.90
16881;DHT22;8557;52.068;5.198;2023-02-11T00:56:06;7.10;99.90
16881;DHT22;8557;52.068;5.198;2023-02-11T00:58:32;7.10;99.90
16881;DHT22;8557;52.068;5.198;2023-02-11T01:00:59;7.10;99.90
16881;DHT22;8557;52.068;5.198;2023-02-11T01:03:26;7.10;99.90
16881;DHT22;8557;52.068;5.198;2023-02-11T01:05:53;7.10;99.90
16881;DHT22;8557;52.068;5.198;2023-02-11T01:08:20;7.10;99.90
16881;DHT22;8557;52.068;5.198;2023-02-11T01:10:54;7.20;99.90
16881;DHT22;8557;52.068;5.198;2023-02-11T01:13:22;7.20;99.90
16881;DHT22;8557;52.068;5.198;2023-02-11T01:15:49;7.00;99.90
16881;DHT22;8557;52.068;5.198;2023-02-11T01:18:16;7.00;99.90
16881;DHT22;8557;52.068;5.198;2023-02-11T01:20:43;7.00;99.90
16881;DHT22;8557;52.068;5.198;2023-02-11T01:23:10;7.00;99.90
16881;DHT22;8557;52.068;5.198;2023-02-11T01:25:37;7.00;99.90
16881;DHT22;8557;52.068;5.198;2023-02-11T01:28:05;7.00;99.90
16881;DHT22;8557;52.068;5.198;2023-02-11T01:30:32;7.00;99.90
16881;DHT22;8557;52.068;5.198;2023-02-11T01:32:58;7.00;99.90
16881;DHT22;8557;52.068;5.198;2023-02-11T01:35:25;7.00;99.90
16881;DHT22;8557;52.068;5.198;2023-02-11T01:37:52;7.00;99.90
16881;DHT22;8557;52.068;5.198;2023-02-11T01:40:19;7.00;99.90
16881;DHT22;8557;52.068;5.198;2023-02-11T01:42:46;7.00;99.90
16881;DHT22;8557;52.068;5.198;2023-02-11T01:45:45;7.10;99.90
16881;DHT22;8557;52.068;5.198;2023-02-11T01:48:18;7.00;99.90
16881;DHT22;8557;52.068;5.198;2023-02-11T01:50:49;7.00;99.90
16881;DHT22;8557;52.068;5.198;2023-02-11T01:53:17;6.90;99.90
16881;DHT22;8557;52.068;5.198;2023-02-11T01:56:02;6.90;99.90
16881;DHT22;8557;52.068;5.198;2023-02-11T01:58:48;6.90;99.90
16881;DHT22;8557;52.068;5.198;2023-02-11T02:01:22;6.80;99.90
16881;DHT22;8557;52.068;5.198;2023-02-11T02:03:53;6.70;99.90
16881;DHT22;8557;52.068;5.198;2023-02-11T02:06:25;6.60;99.90
16881;DHT22;8557;52.068;5.198;2023-02-11T02:08:58;6.50;99.90
16881;DHT22;8557;52.068;5.198;2023-02-11T02:11:27;6.40;99.90
16881;DHT22;8557;52.068;5.198;2023-02-11T02:13:54;6.30;99.90
16881;DHT22;8557;52.068;5.198;2023-02-11T02:16:27;6.30;99.90
16881;DHT22;8557;52.068;5.198;2023-02-11T02:19:04;6.30;99.90
16881;DHT22;8557;52.068;5.198;2023-02-11T02:22:05;6.40;99.90
16881;DHT22;8557;52.068;5.198;2023-02-11T02:24:58;6.30;99.90
16881;DHT22;8557;52.068;5.198;2023-02-11T02:27:36;6.30;99.90
16881;DHT22;8557;52.068;5.198;2023-02-11T02:30:34;6.30;99.90
16881;DHT22;8557;52.068;5.198;2023-02-11T02:33:13;6.20;99.90
16881;DHT22;8557;52.068;5.198;2023-02-11T02:35:49;6.10;99.90
16881;DHT22;8557;52.068;5.198;2023-02-11T02:38:24;6.10;99.90
16881;DHT22;8557;52.068;5.198;2023-02-11T02:40:56;6.00;99.90
16881;DHT22;8557;52.068;5.198;2023-02-11T02:43:26;5.90;99.90
16881;DHT22;8557;52.068;5.198;2023-02-11T02:45:54;5.80;99.90
16881;DHT22;8557;52.068;5.198;2023-02-11T02:48:27;5.80;99.90
16881;DHT22;8557;52.068;5.198;2023-02-11T02:51:03;5.80;99.90
16881;DHT22;8557;52.068;5.198;2023-02-11T02:53:43;5.70;99.90
16881;DHT22;8557;52.068;5.198;2023-02-11T02:56:15;5.70;99.90
16881;DHT22;8557;52.068;5.198;2023-02-11T02:59:03;5.70;99.90
16881;DHT22;8557;52.068;5.198;2023-02-11T03:01:41;5.70;99.90
16881;DHT22;8557;52.068;5.198;2023-02-11T03:04:20;5.70;99.90
16881;DHT22;8557;52.068;5.198;2023-02-11T03:06:53;5.70;99.90
16881;DHT22;8557;52.068;5.198;2023-02-11T03:09:26;5.70;99.90
16881;DHT22;8557;52.068;5.198;2023-02-11T03:11:55;5.70;99.90
16881;DHT22;8557;52.068;5.198;2023-02-11T03:14:22;5.70;99.90
16881;DHT22;8557;52.068;5.198;2023-02-11T03:16:53;5.70;99.90
16881;DHT22;8557;52.068;5.198;2023-02-11T03:19:25;5.60;99.90
16881;DHT22;8557;52.068;5.198;2023-02-11T03:21:54;5.70;99.90
16881;DHT22;8557;52.068;5.198;2023-02-11T03:24:27;5.60;99.90
16881;DHT22;8557;52.068;5.198;2023-02-11T03:26:57;5.60;99.90
16881;DHT22;8557;52.068;5.198;2023-02-11T03:29:30;5.60;99.90
16881;DHT22;8557;52.068;5.198;2023-02-11T03:32:03;5.60;99.90
16881;DHT22;8557;52.068;5.198;2023-02-11T03:34:39;5.60;99.90
16881;DHT22;8557;52.068;5.198;2023-02-11T03:37:11;5.50;99.90
16881;DHT22;8557;52.068;5.198;2023-02-11T03:39:43;5.60;99.90
16881;DHT22;8557;52.068;5.198;2023-02-11T03:42:12;5.70;99.90
16881;DHT22;8557;52.068;5.198;2023-02-11T03:44:43;5.70;99.90
16881;DHT22;8557;52.068;5.198;2023-02-11T03:47:13;5.80;99.90
16881;DHT22;8557;52.068;5.198;2023-02-11T03:49:42;5.80;99.90
16881;DHT22;8557;52.068;5.198;2023-02-11T03:52:11;5.70;99.90
16881;DHT22;8557;52.068;5.198;2023-02-11T03:54:40;5.80;99.90
16881;DHT22;8557;52.068;5.198;2023-02-11T03:57:09;5.60;99.90
16881;DHT22;8557;52.068;5.198;2023-02-11T03:59:53;5.70;99.90
16881;DHT22;8557;52.068;5.198;2023-02-11T04:02:21;5.70;99.90
16881;DHT22;8557;52.068;5.198;2023-02-11T04:04:50;5.60;99.90
16881;DHT22;8557;52.068;5.198;2023-02-11T04:07:17;5.60;99.90
16881;DHT22;8557;52.068;5.198;2023-02-11T04:09:44;5.60;99.90
16881;DHT22;8557;52.068;5.198;2023-02-11T04:12:10;5.70;99.90
16881;DHT22;8557;52.068;5.198;2023-02-11T04:14:37;5.70;99.90
16881;DHT22;8557;52.068;5.198;2023-02-11T04:17:04;5.70;99.90
16881;DHT22;8557;52.068;5.198;2023-02-11T04:19:31;5.80;99.90
16881;DHT22;8557;52.068;5.198;2023-02-11T04:21:59;5.80;99.90
16881;DHT22;8557;52.068;5.198;2023-02-11T04:24:27;5.80;99.90
16881;DHT22;8557;52.068;5.198;2023-02-11T04:26:54;5.70;99.90
16881;DHT22;8557;52.068;5.198;2023-02-11T04:29:21;5.70;99.90
16881;DHT22;8557;52.068;5.198;2023-02-11T04:31:48;5.70;99.90
16881;DHT22;8557;52.068;5.198;2023-02-11T04:34:15;5.80;99.90
16881;DHT22;8557;52.068;5.198;2023-02-11T04:36:42;5.90;99.90
16881;DHT22;8557;52.068;5.198;2023-02-11T04:39:10;5.90;99.90
16881;DHT22;8557;52.068;5.198;2023-02-11T04:41:37;6.00;99.90
16881;DHT22;8557;52.068;5.198;2023-02-11T04:44:04;5.90;99.90
16881;DHT22;8557;52.068;5.198;2023-02-11T04:46:31;6.00;99.90
16881;DHT22;8557;52.068;5.198;2023-02-11T04:48:58;6.00;99.90
16881;DHT22;8557;52.068;5.198;2023-02-11T04:51:24;6.10;99.90
16881;DHT22;8557;52.068;5.198;2023-02-11T04:53:51;6.00;99.90
16881;DHT22;8557;52.068;5.198;2023-02-11T04:56:19;6.10;99.90
16881;DHT22;8557;52.068;5.198;2023-02-11T04:58:46;6.20;99.90
16881;DHT22;8557;52.068;5.198;2023-02-11T05:01:14;6.20;99.90
16881;DHT22;8557;52.068;5.198;2023-02-11T05:03:41;6.30;99.90
16881;DHT22;8557;52.068;5.198;2023-02-11T05:06:09;6.20;99.90
16881;DHT22;8557;52.068;5.198;2023-02-11T05:08:36;6.20;99.90
16881;DHT22;8557;52.068;5.198;2023-02-11T05:11:03;6.20;99.90
16881;DHT22;8557;52.068;5.198;2023-02-11T05:13:31;6.20;99.90
16881;DHT22;8557;52.068;5.198;2023-02-11T05:15:58;6.30;99.90
16881;DHT22;8557;52.068;5.198;2023-02-11T05:18:25;6.30;99.90
16881;DHT22;8557;52.068;5.198;2023-02-11T05:20:52;6.30;99.90
16881;DHT22;8557;52.068;5.198;2023-02-11T05:23:18;6.30;99.90
16881;DHT22;8557;52.068;5.198;2023-02-11T05:25:45;6.30;99.90
16881;DHT22;8557;52.068;5.198;2023-02-11T05:28:12;6.30;99.90
16881;DHT22;8557;52.068;5.198;2023-02-11T05:30:40;6.30;99.90
16881;DHT22;8557;52.068;5.198;2023-02-11T05:33:07;6.30;99.90
16881;DHT22;8557;52.068;5.198;2023-02-11T05:35:34;6.30;99.90
16881;DHT22;8557;52.068;5.198;2023-02-11T05:38:01;6.30;99.90
16881;DHT22;8557;52.068;5.198;2023-02-11T05:40:27;6.20;99.90
16881;DHT22;8557;52.068;5.198;2023-02-11T05:42:54;6.20;99.90
16881;DHT22;8557;52.068;5.198;2023-02-11T05:45:21;6.20;99.90
16881;DHT22;8557;52.068;5.198;2023-02-11T05:47:49;6.30;99.90
16881;DHT22;8557;52.068;5.198;2023-02-11T05:50:16;6.30;99.90
16881;DHT22;8557;52.068;5.198;2023-02-11T05:52:43;6.30;99.90
16881;DHT22;8557;52.068;5.198;2023-02-11T05:55:10;6.20;99.90
16881;DHT22;8557;52.068;5.198;2023-02-11T05:57:37;6.30;99.90
16881;DHT22;8557;52.068;5.198;2023-02-11T06:00:05;6.30;99.90
16881;DHT22;8557;52.068;5.198;2023-02-11T06:02:32;6.40;99.90
16881;DHT22;8557;52.068;5.198;2023-02-11T06:05:00;6.40;99.90
16881;DHT22;8557;52.068;5.198;2023-02-11T06:07:27;6.40;99.90
16881;DHT22;8557;52.068;5.198;2023-02-11T06:09:54;6.40;99.90
16881;DHT22;8557;52.068;5.198;2023-02-11T06:12:21;6.40;99.90
16881;DHT22;8557;52.068;5.198;2023-02-11T06:14:47;6.50;99.90
16881;DHT22;8557;52.068;5.198;2023-02-11T06:17:14;6.50;99.90
16881;DHT22;8557;52.068;5.198;2023-02-11T06:19:41;6.50;99.90
16881;DHT22;8557;52.068;5.198;2023-02-11T06:22:09;6.50;99.90
16881;DHT22;8557;52.068;5.198;2023-02-11T06:24:36;6.50;99.90
16881;DHT22;8557;52.068;5.198;2023-02-11T06:27:04;6.60;99.90
16881;DHT22;8557;52.068;5.198;2023-02-11T06:29:31;6.50;99.90
16881;DHT22;8557;52.068;5.198;2023-02-11T06:31:57;6.60;99.90
16881;DHT22;8557;52.068;5.198;2023-02-11T06:34:24;6.70;99.90
16881;DHT22;8557;52.068;5.198;2023-02-11T06:36:51;6.70;99.90
16881;DHT22;8557;52.068;5.198;2023-02-11T06:39:19;6.80;99.90
16881;DHT22;8557;52.068;5.198;2023-02-11T06:41:46;6.70;99.90
16881;DHT22;8557;52.068;5.198;2023-02-11T06:44:13;6.70;99.90
16881;DHT22;8557;52.068;5.198;2023-02-11T06:46:39;6.70;99.90
16881;DHT22;8557;52.068;5.198;2023-02-11T06:49:06;6.70;99.90
16881;DHT22;8557;52.068;5.198;2023-02-11T06:51:33;6.80;99.90
16881;DHT22;8557;52.068;5.198;2023-02-11T06:54:00;6.80;99.90
16881;DHT22;8557;52.068;5.198;2023-02-11T06:56:28;6.70;99.90
16881;DHT22;8557;52.068;5.198;2023-02-11T06:58:55;6.80;99.90
16881;DHT22;8557;52.068;5.198;2023-02-11T07:01:23;6.80;99.90
16881;DHT22;8557;52.068;5.198;2023-02-11T07:03:50;6.90;99.90
16881;DHT22;8557;52.068;5.198;2023-02-11T07:06:19;6.90;99.90
16881;DHT22;8557;52.068;5.198;2023-02-11T07:08:46;6.90;99.90
16881;DHT22;8557;52.068;5.198;2023-02-11T07:11:15;6.90;99.90
16881;DHT22;8557;52.068;5.198;2023-02-11T07:13:43;6.90;99.90
16881;DHT22;8557;52.068;5.198;2023-02-11T07:16:14;6.90;99.90
16881;DHT22;8557;52.068;5.198;2023-02-11T07:18:42;6.80;99.90
16881;DHT22;8557;52.068;5.198;2023-02-11T07:21:11;6.90;99.90
16881;DHT22;8557;52.068;5.198;2023-02-11T07:23:38;6.90;99.90
16881;DHT22;8557;52.068;5.198;2023-02-11T07:26:07;6.90;99.90
16881;DHT22;8557;52.068;5.198;2023-02-11T07:28:35;6.80;99.90
16881;DHT22;8557;52.068;5.198;2023-02-11T07:31:06;6.90;99.90
16881;DHT22;8557;52.068;5.198;2023-02-11T07:33:33;6.90;99.90
16881;DHT22;8557;52.068;5.198;2023-02-11T07:36:00;7.00;99.90
16881;DHT22;8557;52.068;5.198;2023-02-11T07:38:27;7.10;99.90
16881;DHT22;8557;52.068;5.198;2023-02-11T07:40:58;7.10;99.90
16881;DHT22;8557;52.068;5.198;2023-02-11T07:43:25;7.10;99.90
16881;DHT22;8557;52.068;5.198;2023-02-11T07:45:51;7.20;99.90
16881;DHT22;8557;52.068;5.198;2023-02-11T07:48:19;7.20;99.90
16881;DHT22;8557;52.068;5.198;2023-02-11T07:50:46;7.10;99.90
16881;DHT22;8557;52.068;5.198;2023-02-11T07:53:13;7.10;99.90
16881;DHT22;8557;52.068;5.198;2023-02-11T07:55:41;7.30;99.90
16881;DHT22;8557;52.068;5.198;2023-02-11T07:58:08;7.20;99.90
16881;DHT22;8557;52.068;5.198;2023-02-11T08:00:35;7.20;99.90
16881;DHT22;8557;52.068;5.198;2023-02-11T08:03:02;7.20;99.90
16881;DHT22;8557;52.068;5.198;2023-02-11T08:05:31;7.30;99.90
16881;DHT22;8557;52.068;5.198;2023-02-11T08:07:57;7.30;99.90
16881;DHT22;8557;52.068;5.198;2023-02-11T08:10:24;7.30;99.90
16881;DHT22;8557;52.068;5.198;2023-02-11T08:12:51;7.20;99.90
16881;DHT22;8557;52.068;5.198;2023-02-11T08:15:19;7.30;99.90
16881;DHT22;8557;52.068;5.198;2023-02-11T08:17:46;7.30;99.90
16881;DHT22;8557;52.068;5.198;2023-02-11T08:20:13;7.30;99.90
16881;DHT22;8557;52.068;5.198;2023-02-11T08:22:41;7.40;99.90
16881;DHT22;8557;52.068;5.198;2023-02-11T08:25:08;7.40;99.90
16881;DHT22;8557;52.068;5.198;2023-02-11T08:27:35;7.40;99.90
16881;DHT22;8557;52.068;5.198;2023-02-11T08:30:02;7.40;99.90
16881;DHT22;8557;52.068;5.198;2023-02-11T08:32:29;7.30;99.90
16881;DHT22;8557;52.068;5.198;2023-02-11T08:34:56;7.30;99.90
16881;DHT22;8557;52.068;5.198;2023-02-11T08:37:22;7.30;99.90
16881;DHT22;8557;52.068;5.198;2023-02-11T08:39:51;7.40;99.90
16881;DHT22;8557;52.068;5.198;2023-02-11T08:42:17;7.50;99.90
16881;DHT22;8557;52.068;5.198;2023-02-11T08:44:44;7.60;99.90
16881;DHT22;8557;52.068;5.198;2023-02-11T08:47:11;7.60;99.90
16881;DHT22;8557;52.068;5.198;2023-02-11T08:49:38;7.60;99.90
16881;DHT22;8557;52.068;5.198;2023-02-11T08:52:06;7.60;99.90
16881;DHT22;8557;52.068;5.198;2023-02-11T08:54:33;7.70;99.90
16881;DHT22;8557;52.068;5.198;2023-02-11T08:57:02;7.80;99.90
16881;DHT22;8557;52.068;5.198;2023-02-11T08:59:29;7.80;99.90
16881;DHT22;8557;52.068;5.198;2023-02-11T09:01:56;7.90;99.90
16881;DHT22;8557;52.068;5.198;2023-02-11T09:04:23;7.90;99.90
16881;DHT22;8557;52.068;5.198;2023-02-11T09:06:50;7.90;99.90
16881;DHT22;8557;52.068;5.198;2023-02-11T09:09:16;8.00;99.90
16881;DHT22;8557;52.068;5.198;2023-02-11T09:11:44;8.10;99.90
16881;DHT22;8557;52.068;5.198;2023-02-11T09:14:17;8.00;99.90
16881;DHT22;8557;52.068;5.198;2023-02-11T09:16:45;8.10;99.90
16881;DHT22;8557;52.068;5.198;2023-02-11T09:19:11;8.20;99.90
16881;DHT22;8557;52.068;5.198;2023-02-11T09:21:38;8.20;99.90
16881;DHT22;8557;52.068;5.198;2023-02-11T09:24:05;8.30;99.90
16881;DHT22;8557;52.068;5.198;2023-02-11T09:26:34;8.30;99.90
16881;DHT22;8557;52.068;5.198;2023-02-11T09:29:02;8.40;99.90
16881;DHT22;8557;52.068;5.198;2023-02-11T09:31:32;8.30;99.90
16881;DHT22;8557;52.068;5.198;2023-02-11T09:34:01;8.30;99.90
16881;DHT22;8557;52.068;5.198;2023-02-11T09:36:30;8.40;99.90
16881;DHT22;8557;52.068;5.198;2023-02-11T09:38:59;8.30;99.90
16881;DHT22;8557;52.068;5.198;2023-02-11T09:41:40;8.30;99.90
16881;DHT22;8557;52.068;5.198;2023-02-11T09:44:17;8.40;99.90
16881;DHT22;8557;52.068;5.198;2023-02-11T09:46:52;8.40;99.90
16881;DHT22;8557;52.068;5.198;2023-02-11T09:49:23;8.40;99.90
16881;DHT22;8557;52.068;5.198;2023-02-11T09:51:56;8.30;99.90
16881;DHT22;8557;52.068;5.198;2023-02-11T09:54:29;8.30;99.90
16881;DHT22;8557;52.068;5.198;2023-02-11T09:56:57;8.40;99.90
16881;DHT22;8557;52.068;5.198;2023-02-11T09:59:23;8.50;99.90
16881;DHT22;8557;52.068;5.198;2023-02-11T10:01:55;8.60;99.90
16881;DHT22;8557;52.068;5.198;2023-02-11T10:04:38;8.70;99.90
16881;DHT22;8557;52.068;5.198;2023-02-11T10:07:19;8.60;99.90
16881;DHT22;8557;52.068;5.198;2023-02-11T10:10:01;8.70;99.90
16881;DHT22;8557;52.068;5.198;2023-02-11T10:12:56;8.80;99.90
16881;DHT22;8557;52.068;5.198;2023-02-11T10:15:33;8.90;99.90
16881;DHT22;8557;52.068;5.198;2023-02-11T10:18:19;8.90;99.90
16881;DHT22;8557;52.068;5.198;2023-02-11T10:21:01;9.00;99.90
16881;DHT22;8557;52.068;5.198;2023-02-11T10:23:34;9.00;99.90
16881;DHT22;8557;52.068;5.198;2023-02-11T10:26:07;9.10;99.90
16881;DHT22;8557;52.068;5.198;2023-02-11T10:28:36;9.10;99.90
16881;DHT22;8557;52.068;5.198;2023-02-11T10:31:08;9.10;99.90
16881;DHT22;8557;52.068;5.198;2023-02-11T10:33:43;9.00;99.90
16881;DHT22;8557;52.068;5.198;2023-02-11T10:36:12;9.00;99.90
16881;DHT22;8557;52.068;5.198;2023-02-11T10:38:39;9.10;99.90
16881;DHT22;8557;52.068;5.198;2023-02-11T10:41:09;9.10;99.90
16881;DHT22;8557;52.068;5.198;2023-02-11T10:43:40;9.10;99.90
16881;DHT22;8557;52.068;5.198;2023-02-11T10:46:15;9.30;99.90
16881;DHT22;8557;52.068;5.198;2023-02-11T10:48:45;9.30;99.90
16881;DHT22;8557;52.068;5.198;2023-02-11T10:51:19;9.40;99.90
16881;DHT22;8557;52.068;5.198;2023-02-11T10:53:48;9.50;99.90
16881;DHT22;8557;52.068;5.198;2023-02-11T10:56:21;9.60;99.90
16881;DHT22;8557;52.068;5.198;2023-02-11T10:58:58;9.70;99.90
16881;DHT22;8557;52.068;5.198;2023-02-11T11:01:44;9.80;99.90
16881;DHT22;8557;52.068;5.198;2023-02-11T11:04:36;10.00;99.90
16881;DHT22;8557;52.068;5.198;2023-02-11T11:07:19;10.20;99.90
16881;DHT22;8557;52.068;5.198;2023-02-11T11:09:50;10.40;99.90
16881;DHT22;8557;52.068;5.198;2023-02-11T11:12:32;10.60;99.90
16881;DHT22;8557;52.068;5.198;2023-02-11T11:15:02;10.80;99.90
16881;DHT22;8557;52.068;5.198;2023-02-11T11:17:29;10.70;99.90
16881;DHT22;8557;52.068;5.198;2023-02-11T11:20:20;10.60;99.90
16881;DHT22;8557;52.068;5.198;2023-02-11T11:22:50;10.60;99.90
16881;DHT22;8557;52.068;5.198;2023-02-11T11:25:22;10.60;99.90
16881;DHT22;8557;52.068;5.198;2023-02-11T11:27:50;10.70;99.90
16881;DHT22;8557;52.068;5.198;2023-02-11T11:30:18;10.80;99.90
16881;DHT22;8557;52.068;5.198;2023-02-11T11:32:46;10.80;99.90
16881;DHT22;8557;52.068;5.198;2023-02-11T11:35:26;10.80;99.90
16881;DHT22;8557;52.068;5.198;2023-02-11T11:37:55;10.90;99.90
16881;DHT22;8557;52.068;5.198;2023-02-11T11:40:23;10.90;99.90
16881;DHT22;8557;52.068;5.198;2023-02-11T11:43:06;10.90;99.90
16881;DHT22;8557;52.068;5.198;2023-02-11T11:45:52;11.10;99.90
16881;DHT22;8557;52.068;5.198;2023-02-11T11:48:23;11.20;99.90
16881;DHT22;8557;52.068;5.198;2023-02-11T11:50:54;11.30;99.90
16881;DHT22;8557;52.068;5.198;2023-02-11T11:53:28;11.40;99.90
16881;DHT22;8557;52.068;5.198;2023-02-11T11:56:01;11.40;99.90
16881;DHT22;8557;52.068;5.198;2023-02-11T11:58:30;11.30;99.90
16881;DHT22;8557;52.068;5.198;2023-02-11T12:01:04;11.20;99.90
16881;DHT22;8557;52.068;5.198;2023-02-11T12:04:01;11.20;99.90
16881;DHT22;8557;52.068;5.198;2023-02-11T12:06:40;11.10;99.90
16881;DHT22;8557;52.068;5.198;2023-02-11T12:09:16;10.90;99.90
16881;DHT22;8557;52.068;5.198;2023-02-11T12:12:00;10.70;99.90
16881;DHT22;8557;52.068;5.198;2023-02-11T12:14:39;10.80;99.90
16881;DHT22;8557;52.068;5.198;2023-02-11T12:17:17;10.70;99.90
16881;DHT22;8557;52.068;5.198;2023-02-11T12:20:04;10.70;99.90
16881;DHT22;8557;52.068;5.198;2023-02-11T12:22:51;10.70;99.90
16881;DHT22;8557;52.068;5.198;2023-02-11T12:25:25;10.70;99.90
16881;DHT22;8557;52.068;5.198;2023-02-11T12:28:06;10.60;99.90
16881;DHT22;8557;52.068;5.198;2023-02-11T12:30:45;10.60;99.90
16881;DHT22;8557;52.068;5.198;2023-02-11T12:33:24;10.80;99.90
16881;DHT22;8557;52.068;5.198;2023-02-11T12:35:59;10.80;99.90
16881;DHT22;8557;52.068;5.198;2023-02-11T12:39:04;11.10;99.90
16881;DHT22;8557;52.068;5.198;2023-02-11T12:41:48;11.20;99.90
16881;DHT22;8557;52.068;5.198;2023-02-11T12:44:42;11.50;99.90
16881;DHT22;8557;52.068;5.198;2023-02-11T12:47:17;11.60;99.90
16881;DHT22;8557;52.068;5.198;2023-02-11T12:49:59;11.70;99.90
16881;DHT22;8557;52.068;5.198;2023-02-11T12:52:54;11.80;99.90
16881;DHT22;8557;52.068;5.198;2023-02-11T12:55:27;11.90;99.90
16881;DHT22;8557;52.068;5.198;2023-02-11T12:57:56;11.80;99.90
16881;DHT22;8557;52.068;5.198;2023-02-11T13:00:27;11.80;99.90
16881;DHT22;8557;52.068;5.198;2023-02-11T13:03:00;11.80;99.90
16881;DHT22;8557;52.068;5.198;2023-02-11T13:05:33;11.90;99.90
16881;DHT22;8557;52.068;5.198;2023-02-11T13:08:05;11.90;99.90
16881;DHT22;8557;52.068;5.198;2023-02-11T13:10:40;11.70;99.90
16881;DHT22;8557;52.068;5.198;2023-02-11T13:13:13;11.70;99.90
16881;DHT22;8557;52.068;5.198;2023-02-11T13:15:46;11.60;99.90
16881;DHT22;8557;52.068;5.198;2023-02-11T13:18:25;11.60;99.90
16881;DHT22;8557;52.068;5.198;2023-02-11T13:20:56;12.00;99.90
16881;DHT22;8557;52.068;5.198;2023-02-11T13:23:29;12.10;99.90
16881;DHT22;8557;52.068;5.198;2023-02-11T13:26:07;12.10;99.90
16881;DHT22;8557;52.068;5.198;2023-02-11T13:28:43;12.10;99.90
16881;DHT22;8557;52.068;5.198;2023-02-11T13:31:12;12.10;99.90
16881;DHT22;8557;52.068;5.198;2023-02-11T13:33:41;12.20;99.90
16881;DHT22;8557;52.068;5.198;2023-02-11T13:36:20;12.30;99.90
16881;DHT22;8557;52.068;5.198;2023-02-11T13:39:05;12.20;99.90
16881;DHT22;8557;52.068;5.198;2023-02-11T13:41:37;12.20;99.90
16881;DHT22;8557;52.068;5.198;2023-02-11T13:44:18;12.10;99.90
16881;DHT22;8557;52.068;5.198;2023-02-11T13:46:53;12.40;99.90
16881;DHT22;8557;52.068;5.198;2023-02-11T13:49:23;11.90;99.90
16881;DHT22;8557;52.068;5.198;2023-02-11T13:51:51;12.00;99.90
16881;DHT22;8557;52.068;5.198;2023-02-11T13:54:22;11.90;99.90
16881;DHT22;8557;52.068;5.198;2023-02-11T13:57:26;11.90;99.90
16881;DHT22;8557;52.068;5.198;2023-02-11T13:59:53;12.00;99.90
16881;DHT22;8557;52.068;5.198;2023-02-11T14:02:24;11.80;99.90
16881;DHT22;8557;52.068;5.198;2023-02-11T14:05:27;11.70;99.90
16881;DHT22;8557;52.068;5.198;2023-02-11T14:08:20;11.80;99.90
16881;DHT22;8557;52.068;5.198;2023-02-11T14:11:07;11.80;99.90
16881;DHT22;8557;52.068;5.198;2023-02-11T14:14:01;11.80;99.90
16881;DHT22;8557;52.068;5.198;2023-02-11T14:16:28;11.80;99.90
16881;DHT22;8557;52.068;5.198;2023-02-11T14:19:00;11.90;99.90
16881;DHT22;8557;52.068;5.198;2023-02-11T14:21:35;12.10;99.90
16881;DHT22;8557;52.068;5.198;2023-02-11T14:24:44;12.20;99.90
16881;DHT22;8557;52.068;5.198;2023-02-11T14:27:17;12.10;99.90
16881;DHT22;8557;52.068;5.198;2023-02-11T14:29:58;12.00;99.90
16881;DHT22;8557;52.068;5.198;2023-02-11T14:32:37;12.00;99.90
16881;DHT22;8557;52.068;5.198;2023-02-11T14:35:11;12.00;99.90
16881;DHT22;8557;52.068;5.198;2023-02-11T14:37:46;12.10;99.90
16881;DHT22;8557;52.068;5.198;2023-02-11T14:40:25;12.00;99.90
16881;DHT22;8557;52.068;5.198;2023-02-11T14:42:54;11.80;99.90
16881;DHT22;8557;52.068;5.198;2023-02-11T14:45:25;11.70;99.90
16881;DHT22;8557;52.068;5.198;2023-02-11T14:47:57;11.70;99.90
16881;DHT22;8557;52.068;5.198;2023-02-11T14:50:31;11.70;99.90
16881;DHT22;8557;52.068;5.198;2023-02-11T14:53:00;11.60;99.90
16881;DHT22;8557;52.068;5.198;2023-02-11T14:55:30;11.50;99.90
16881;DHT22;8557;52.068;5.198;2023-02-11T14:58:11;11.50;99.90
16881;DHT22;8557;52.068;5.198;2023-02-11T15:00:49;11.60;99.90
16881;DHT22;8557;52.068;5.198;2023-02-11T15:03:28;11.60;99.90
16881;DHT22;8557;52.068;5.198;2023-02-11T15:05:57;11.60;99.90
16881;DHT22;8557;52.068;5.198;2023-02-11T15:08:25;11.50;99.90
16881;DHT22;8557;52.068;5.198;2023-02-11T15:10:53;11.40;99.90
16881;DHT22;8557;52.068;5.198;2023-02-11T15:13:23;11.40;99.90
16881;DHT22;8557;52.068;5.198;2023-02-11T15:16:03;11.40;99.90
16881;DHT22;8557;52.068;5.198;2023-02-11T15:18:34;11.30;99.90
16881;DHT22;8557;52.068;5.198;2023-02-11T15:21:03;11.20;99.90
16881;DHT22;8557;52.068;5.198;2023-02-11T15:23:30;11.20;99.90
16881;DHT22;8557;52.068;5.198;2023-02-11T15:25:57;11.20;99.90
16881;DHT22;8557;52.068;5.198;2023-02-11T15:28:30;11.20;99.90
16881;DHT22;8557;52.068;5.198;2023-02-11T15:31:00;11.20;99.90
16881;DHT22;8557;52.068;5.198;2023-02-11T15:33:27;11.20;99.90
16881;DHT22;8557;52.068;5.198;2023-02-11T15:35:57;11.10;99.90
16881;DHT22;8557;52.068;5.198;2023-02-11T15:38:24;11.00;99.90
16881;DHT22;8557;52.068;5.198;2023-02-11T15:40:53;10.90;99.90
16881;DHT22;8557;52.068;5.198;2023-02-11T15:43:20;10.80;99.90
16881;DHT22;8557;52.068;5.198;2023-02-11T15:45:56;10.60;99.90
16881;DHT22;8557;52.068;5.198;2023-02-11T15:48:33;10.60;99.90
16881;DHT22;8557;52.068;5.198;2023-02-11T15:51:04;10.50;99.90
16881;DHT22;8557;52.068;5.198;2023-02-11T15:53:37;10.50;99.90
16881;DHT22;8557;52.068;5.198;2023-02-11T15:56:10;10.40;99.90
16881;DHT22;8557;52.068;5.198;2023-02-11T15:58:40;10.40;99.90
16881;DHT22;8557;52.068;5.198;2023-02-11T16:01:08;10.30;99.90
16881;DHT22;8557;52.068;5.198;2023-02-11T16:03:37;10.20;99.90
16881;DHT22;8557;52.068;5.198;2023-02-11T16:06:21;10.20;99.90
16881;DHT22;8557;52.068;5.198;2023-02-11T16:08:59;10.20;99.90
16881;DHT22;8557;52.068;5.198;2023-02-11T16:11:28;10.20;99.90
16881;DHT22;8557;52.068;5.198;2023-02-11T16:13:57;10.10;99.90
16881;DHT22;8557;52.068;5.198;2023-02-11T16:16:26;10.00;99.90
16881;DHT22;8557;52.068;5.198;2023-02-11T16:18:56;10.00;99.90
16881;DHT22;8557;52.068;5.198;2023-02-11T16:21:28;9.90;99.90
16881;DHT22;8557;52.068;5.198;2023-02-11T16:23:57;9.90;99.90
16881;DHT22;8557;52.068;5.198;2023-02-11T16:26:28;9.90;99.90